sensor_id;sensor_type;location;lat;lon;timestamp;temperature;humidity
16801;DHT22;8518;53.236;10.384;2024-01-11T00:02:03;-2.70;99.90
16801;DHT22;8518;53.236;10.384;2024-01-11T00:04:32;-3.30;99.90
16801;DHT22;8518;53.236;10.384;2024-01-11T00:06:58;-2.90;99.90
16801;DHT22;8518;53.236;10.384;2024-01-11T00:12:27;-2.30;99.90
16801;DHT22;8518;53.236;10.384;2024-01-11T00:14:52;-3.10;99.90
16801;DHT22;8518;53.236;10.384;2024-01-11T00:17:21;-1.50;99.90
16801;DHT22;8518;53.236;10.384;2024-01-11T00:22:50;-2.50;99.90
16801;DHT22;8518;53.236;10.384;2024-01-11T00:25:16;-1.80;99.90
16801;DHT22;8518;53.236;10.384;2024-01-11T00:27:41;-2.60;99.90
16801;DHT22;8518;53.236;10.384;2024-01-11T00:30:07;-2.60;99.90
16801;DHT22;8518;53.236;10.384;2024-01-11T00:32:35;-2.70;99.90
16801;DHT22;8518;53.236;10.384;2024-01-11T00:35:01;-2.90;99.90
16801;DHT22;8518;53.236;10.384;2024-01-11T00:37:26;-2.40;99.90
16801;DHT22;8518;53.236;10.384;2024-01-11T00:42:55;-2.50;99.90
16801;DHT22;8518;53.236;10.384;2024-01-11T00:45:20;-2.50;99.90
16801;DHT22;8518;53.236;10.384;2024-01-11T00:47:48;-2.70;99.90
16801;DHT22;8518;53.236;10.384;2024-01-11T00:50:14;-2.60;99.90
16801;DHT22;8518;53.236;10.384;2024-01-11T00:52:59;-2.50;99.90
16801;DHT22;8518;53.236;10.384;2024-01-11T00:55:26;-2.90;99.90
16801;DHT22;8518;53.236;10.384;2024-01-11T00:57:52;-2.80;99.90
16801;DHT22;8518;53.236;10.384;2024-01-11T01:00:18;-2.60;99.90
16801;DHT22;8518;53.236;10.384;2024-01-11T01:02:43;-2.70;99.90
16801;DHT22;8518;53.236;10.384;2024-01-11T01:05:09;-2.90;99.90
16801;DHT22;8518;53.236;10.384;2024-01-11T01:07:37;-3.00;99.90
16801;DHT22;8518;53.236;10.384;2024-01-11T01:10:03;-2.70;99.90
16801;DHT22;8518;53.236;10.384;2024-01-11T01:12:28;-2.80;99.90
16801;DHT22;8518;53.236;10.384;2024-01-11T01:14:54;-2.90;99.90
16801;DHT22;8518;53.236;10.384;2024-01-11T01:17:21;-2.90;99.90
16801;DHT22;8518;53.236;10.384;2024-01-11T01:22:50;-1.10;99.90
16801;DHT22;8518;53.236;10.384;2024-01-11T01:25:19;-3.00;99.90
16801;DHT22;8518;53.236;10.384;2024-01-11T01:27:44;-2.90;99.90
16801;DHT22;8518;53.236;10.384;2024-01-11T01:30:10;-4.10;99.90
16801;DHT22;8518;53.236;10.384;2024-01-11T01:32:35;-3.00;99.90
16801;DHT22;8518;53.236;10.384;2024-01-11T01:35:01;-3.00;99.90
16801;DHT22;8518;53.236;10.384;2024-01-11T01:37:29;-3.20;99.90
16801;DHT22;8518;53.236;10.384;2024-01-11T01:43:08;-3.40;99.90
16801;DHT22;8518;53.236;10.384;2024-01-11T01:45:45;-3.60;99.90
16801;DHT22;8518;53.236;10.384;2024-01-11T01:51:15;-3.40;99.90
16801;DHT22;8518;53.236;10.384;2024-01-11T01:53:40;-3.90;99.90
16801;DHT22;8518;53.236;10.384;2024-01-11T01:56:06;-4.00;99.90
16801;DHT22;8518;53.236;10.384;2024-01-11T02:01:43;-3.80;99.90
16801;DHT22;8518;53.236;10.384;2024-01-11T02:04:08;-3.70;99.90
16801;DHT22;8518;53.236;10.384;2024-01-11T02:06:46;-5.00;99.90
16801;DHT22;8518;53.236;10.384;2024-01-11T02:12:19;-3.90;99.90
16801;DHT22;8518;53.236;10.384;2024-01-11T02:14:45;-3.90;99.90
16801;DHT22;8518;53.236;10.384;2024-01-11T02:17:11;-3.50;99.90
16801;DHT22;8518;53.236;10.384;2024-01-11T02:22:43;-4.50;99.90
16801;DHT22;8518;53.236;10.384;2024-01-11T02:28:15;-4.20;99.90
16801;DHT22;8518;53.236;10.384;2024-01-11T02:30:40;-4.10;99.90
16801;DHT22;8518;53.236;10.384;2024-01-11T02:33:06;-4.10;99.90
16801;DHT22;8518;53.236;10.384;2024-01-11T02:35:35;-4.00;99.90
16801;DHT22;8518;53.236;10.384;2024-01-11T02:41:06;-3.90;99.90
16801;DHT22;8518;53.236;10.384;2024-01-11T02:43:32;-2.70;99.90
16801;DHT22;8518;53.236;10.384;2024-01-11T02:46:01;-4.40;99.90
16801;DHT22;8518;53.236;10.384;2024-01-11T02:51:30;-3.70;99.90
16801;DHT22;8518;53.236;10.384;2024-01-11T02:53:57;-3.70;99.90
16801;DHT22;8518;53.236;10.384;2024-01-11T02:56:23;-3.60;99.90
16801;DHT22;8518;53.236;10.384;2024-01-11T03:01:52;-3.20;99.90
16801;DHT22;8518;53.236;10.384;2024-01-11T03:04:27;-3.50;99.90
16801;DHT22;8518;53.236;10.384;2024-01-11T03:06:53;-3.90;99.90
16801;DHT22;8518;53.236;10.384;2024-01-11T03:12:22;-3.50;99.90
16801;DHT22;8518;53.236;10.384;2024-01-11T03:14:51;-3.60;99.90
16801;DHT22;8518;53.236;10.384;2024-01-11T03:17:16;-3.60;99.90
16801;DHT22;8518;53.236;10.384;2024-01-11T03:22:47;-3.60;99.90
16801;DHT22;8518;53.236;10.384;2024-01-11T03:25:13;-2.80;99.90
16801;DHT22;8518;53.236;10.384;2024-01-11T03:27:38;-3.60;99.90
16801;DHT22;8518;53.236;10.384;2024-01-11T03:30:04;-3.50;99.90
16801;DHT22;8518;53.236;10.384;2024-01-11T03:32:29;-3.30;99.90
16801;DHT22;8518;53.236;10.384;2024-01-11T03:34:55;-3.70;99.90
16801;DHT22;8518;53.236;10.384;2024-01-11T03:37:27;-3.40;99.90
16801;DHT22;8518;53.236;10.384;2024-01-11T03:42:55;-3.60;99.90
16801;DHT22;8518;53.236;10.384;2024-01-11T03:45:23;-3.70;99.90
16801;DHT22;8518;53.236;10.384;2024-01-11T03:47:49;-3.70;99.90
16801;DHT22;8518;53.236;10.384;2024-01-11T03:50:14;-3.80;99.90
16801;DHT22;8518;53.236;10.384;2024-01-11T03:52:40;-3.70;99.90
16801;DHT22;8518;53.236;10.384;2024-01-11T03:55:05;-3.20;99.90
16801;DHT22;8518;53.236;10.384;2024-01-11T03:57:31;-3.90;99.90
16801;DHT22;8518;53.236;10.384;2024-01-11T04:00:00;-4.60;99.90
16801;DHT22;8518;53.236;10.384;2024-01-11T04:02:25;-4.00;99.90
16801;DHT22;8518;53.236;10.384;2024-01-11T04:04:50;-4.20;99.90
16801;DHT22;8518;53.236;10.384;2024-01-11T04:07:16;-4.20;99.90
16801;DHT22;8518;53.236;10.384;2024-01-11T04:12:45;-4.00;99.90
16801;DHT22;8518;53.236;10.384;2024-01-11T04:15:20;-3.60;99.90
16801;DHT22;8518;53.236;10.384;2024-01-11T04:17:51;-3.80;99.90
16801;DHT22;8518;53.236;10.384;2024-01-11T04:20:17;-3.80;99.90
16801;DHT22;8518;53.236;10.384;2024-01-11T04:22:43;-3.70;99.90
16801;DHT22;8518;53.236;10.384;2024-01-11T04:25:08;-3.80;99.90
16801;DHT22;8518;53.236;10.384;2024-01-11T04:27:34;-3.90;99.90
16801;DHT22;8518;53.236;10.384;2024-01-11T04:30:05;-4.00;99.90
16801;DHT22;8518;53.236;10.384;2024-01-11T04:32:36;-4.10;99.90
16801;DHT22;8518;53.236;10.384;2024-01-11T04:35:05;-4.10;99.90
16801;DHT22;8518;53.236;10.384;2024-01-11T04:37:31;-4.10;99.90
16801;DHT22;8518;53.236;10.384;2024-01-11T04:40:02;-4.30;99.90
16801;DHT22;8518;53.236;10.384;2024-01-11T04:42:28;-4.30;99.90
16801;DHT22;8518;53.236;10.384;2024-01-11T04:44:54;-4.30;99.90
16801;DHT22;8518;53.236;10.384;2024-01-11T04:47:19;-3.90;99.90
16801;DHT22;8518;53.236;10.384;2024-01-11T04:52:49;-4.40;99.90
16801;DHT22;8518;53.236;10.384;2024-01-11T04:55:15;-4.40;99.90
16801;DHT22;8518;53.236;10.384;2024-01-11T04:57:40;-4.40;99.90
16801;DHT22;8518;53.236;10.384;2024-01-11T05:00:06;-4.30;99.90
16801;DHT22;8518;53.236;10.384;2024-01-11T05:02:31;-4.10;99.90
16801;DHT22;8518;53.236;10.384;2024-01-11T05:04:57;-4.10;99.90
16801;DHT22;8518;53.236;10.384;2024-01-11T05:07:22;-4.10;99.90
16801;DHT22;8518;53.236;10.384;2024-01-11T05:12:50;-3.70;99.90
16801;DHT22;8518;53.236;10.384;2024-01-11T05:18:19;-3.50;99.90
16801;DHT22;8518;53.236;10.384;2024-01-11T05:20:44;-3.50;99.90
16801;DHT22;8518;53.236;10.384;2024-01-11T05:23:10;-3.70;99.90
16801;DHT22;8518;53.236;10.384;2024-01-11T05:25:36;-3.90;99.90
16801;DHT22;8518;53.236;10.384;2024-01-11T05:31:12;-3.30;99.90
16801;DHT22;8518;53.236;10.384;2024-01-11T05:36:41;-3.00;99.90
16801;DHT22;8518;53.236;10.384;2024-01-11T05:42:30;-3.00;99.90
16801;DHT22;8518;53.236;10.384;2024-01-11T05:44:55;-3.10;99.90
16801;DHT22;8518;53.236;10.384;2024-01-11T05:47:20;-3.10;99.90
16801;DHT22;8518;53.236;10.384;2024-01-11T05:52:49;-2.30;99.90
16801;DHT22;8518;53.236;10.384;2024-01-11T05:55:15;-3.10;99.90
16801;DHT22;8518;53.236;10.384;2024-01-11T05:57:40;-3.00;99.90
16801;DHT22;8518;53.236;10.384;2024-01-11T06:00:06;-2.90;99.90
16801;DHT22;8518;53.236;10.384;2024-01-11T06:02:32;-2.70;99.90
16801;DHT22;8518;53.236;10.384;2024-01-11T06:05:00;-2.80;99.90
16801;DHT22;8518;53.236;10.384;2024-01-11T06:07:26;-2.70;99.90
16801;DHT22;8518;53.236;10.384;2024-01-11T06:12:54;-2.60;99.90
16801;DHT22;8518;53.236;10.384;2024-01-11T06:18:24;-2.60;99.90
16801;DHT22;8518;53.236;10.384;2024-01-11T06:20:50;-2.40;99.90
16801;DHT22;8518;53.236;10.384;2024-01-11T06:23:18;-2.40;99.90
16801;DHT22;8518;53.236;10.384;2024-01-11T06:25:44;-2.30;99.90
16801;DHT22;8518;53.236;10.384;2024-01-11T06:31:14;-2.50;99.90
16801;DHT22;8518;53.236;10.384;2024-01-11T06:33:46;-2.90;99.90
16801;DHT22;8518;53.236;10.384;2024-01-11T06:36:14;-2.80;99.90
16801;DHT22;8518;53.236;10.384;2024-01-11T06:41:46;-2.80;99.90
16801;DHT22;8518;53.236;10.384;2024-01-11T06:44:11;-0.40;99.90
16801;DHT22;8518;53.236;10.384;2024-01-11T06:46:36;-2.90;99.90
16801;DHT22;8518;53.236;10.384;2024-01-11T06:52:07;-2.50;99.90
16801;DHT22;8518;53.236;10.384;2024-01-11T06:54:33;-2.50;99.90
16801;DHT22;8518;53.236;10.384;2024-01-11T06:56:58;-2.80;99.90
16801;DHT22;8518;53.236;10.384;2024-01-11T07:02:30;-2.60;99.90
16801;DHT22;8518;53.236;10.384;2024-01-11T07:05:01;-2.20;99.90
16801;DHT22;8518;53.236;10.384;2024-01-11T07:07:27;-1.10;99.90
16801;DHT22;8518;53.236;10.384;2024-01-11T07:12:56;-2.10;99.90
16801;DHT22;8518;53.236;10.384;2024-01-11T07:15:22;-2.20;99.90
16801;DHT22;8518;53.236;10.384;2024-01-11T07:17:51;-1.90;99.90
16801;DHT22;8518;53.236;10.384;2024-01-11T07:20:18;-0.40;99.90
16801;DHT22;8518;53.236;10.384;2024-01-11T07:22:44;-2.30;99.90
16801;DHT22;8518;53.236;10.384;2024-01-11T07:25:10;-2.00;99.90
16801;DHT22;8518;53.236;10.384;2024-01-11T07:27:41;-1.70;99.90
16801;DHT22;8518;53.236;10.384;2024-01-11T07:30:07;-1.90;99.90
16801;DHT22;8518;53.236;10.384;2024-01-11T07:32:33;-1.70;99.90
16801;DHT22;8518;53.236;10.384;2024-01-11T07:34:59;-2.10;99.90
16801;DHT22;8518;53.236;10.384;2024-01-11T07:37:24;-1.80;99.90
16801;DHT22;8518;53.236;10.384;2024-01-11T07:42:56;-1.60;99.90
16801;DHT22;8518;53.236;10.384;2024-01-11T07:48:25;-1.00;99.90
16801;DHT22;8518;53.236;10.384;2024-01-11T07:50:51;-2.10;99.90
16801;DHT22;8518;53.236;10.384;2024-01-11T07:53:16;-1.50;99.90
16801;DHT22;8518;53.236;10.384;2024-01-11T07:55:45;-1.80;99.90
16801;DHT22;8518;53.236;10.384;2024-01-11T08:01:16;-1.30;99.90
16801;DHT22;8518;53.236;10.384;2024-01-11T08:03:41;-1.20;99.90
16801;DHT22;8518;53.236;10.384;2024-01-11T08:06:10;-1.40;99.90
16801;DHT22;8518;53.236;10.384;2024-01-11T08:11:38;-1.30;99.90
16801;DHT22;8518;53.236;10.384;2024-01-11T08:14:05;-1.20;99.90
16801;DHT22;8518;53.236;10.384;2024-01-11T08:16:30;-0.70;99.90
16801;DHT22;8518;53.236;10.384;2024-01-11T08:21:59;-0.90;99.90
16801;DHT22;8518;53.236;10.384;2024-01-11T08:24:30;-0.80;99.90
16801;DHT22;8518;53.236;10.384;2024-01-11T08:26:59;-0.90;99.90
16801;DHT22;8518;53.236;10.384;2024-01-11T08:32:27;-0.70;99.90
16801;DHT22;8518;53.236;10.384;2024-01-11T08:34:54;-0.90;99.90
16801;DHT22;8518;53.236;10.384;2024-01-11T08:37:19;-1.30;99.90
16801;DHT22;8518;53.236;10.384;2024-01-11T08:42:48;-0.60;99.90
16801;DHT22;8518;53.236;10.384;2024-01-11T08:45:17;-0.30;99.90
16801;DHT22;8518;53.236;10.384;2024-01-11T08:47:47;-0.40;99.90
16801;DHT22;8518;53.236;10.384;2024-01-11T08:50:13;0.50;99.90
16801;DHT22;8518;53.236;10.384;2024-01-11T08:52:38;-0.10;99.90
16801;DHT22;8518;53.236;10.384;2024-01-11T08:55:04;0.10;99.90
16801;DHT22;8518;53.236;10.384;2024-01-11T08:57:30;0.20;99.90
16801;DHT22;8518;53.236;10.384;2024-01-11T09:02:59;0.30;99.90
16801;DHT22;8518;53.236;10.384;2024-01-11T09:05:25;0.20;99.90
16801;DHT22;8518;53.236;10.384;2024-01-11T09:07:50;1.00;99.90
16801;DHT22;8518;53.236;10.384;2024-01-11T09:10:16;1.30;99.90
16801;DHT22;8518;53.236;10.384;2024-01-11T09:12:44;0.50;99.90
16801;DHT22;8518;53.236;10.384;2024-01-11T09:15:12;0.60;99.90
16801;DHT22;8518;53.236;10.384;2024-01-11T09:17:38;0.70;99.90
16801;DHT22;8518;53.236;10.384;2024-01-11T09:20:04;0.90;99.90
16801;DHT22;8518;53.236;10.384;2024-01-11T09:22:29;0.80;99.90
16801;DHT22;8518;53.236;10.384;2024-01-11T09:24:55;0.80;99.90
16801;DHT22;8518;53.236;10.384;2024-01-11T09:27:20;1.30;99.90
16801;DHT22;8518;53.236;10.384;2024-01-11T09:32:49;0.80;99.90
16801;DHT22;8518;53.236;10.384;2024-01-11T09:35:15;0.70;99.90
16801;DHT22;8518;53.236;10.384;2024-01-11T09:37:41;0.20;99.90
16801;DHT22;8518;53.236;10.384;2024-01-11T09:40:06;0.40;99.90
16801;DHT22;8518;53.236;10.384;2024-01-11T09:42:38;0.90;99.90
16801;DHT22;8518;53.236;10.384;2024-01-11T09:45:07;0.50;99.90
16801;DHT22;8518;53.236;10.384;2024-01-11T09:47:33;0.80;99.90
16801;DHT22;8518;53.236;10.384;2024-01-11T09:53:02;0.80;99.90
16801;DHT22;8518;53.236;10.384;2024-01-11T09:55:30;0.70;99.90
16801;DHT22;8518;53.236;10.384;2024-01-11T09:57:56;0.70;99.90
16801;DHT22;8518;53.236;10.384;2024-01-11T10:00:23;0.60;99.90
16801;DHT22;8518;53.236;10.384;2024-01-11T10:02:49;0.70;99.90
16801;DHT22;8518;53.236;10.384;2024-01-11T10:05:16;0.50;99.90
16801;DHT22;8518;53.236;10.384;2024-01-11T10:07:42;0.50;99.90
16801;DHT22;8518;53.236;10.384;2024-01-11T10:10:08;0.40;99.90
16801;DHT22;8518;53.236;10.384;2024-01-11T10:12:34;0.80;99.90
16801;DHT22;8518;53.236;10.384;2024-01-11T10:15:06;0.80;99.90
16801;DHT22;8518;53.236;10.384;2024-01-11T10:17:41;0.80;99.90
16801;DHT22;8518;53.236;10.384;2024-01-11T10:20:10;0.70;99.90
16801;DHT22;8518;53.236;10.384;2024-01-11T10:22:36;0.50;99.90
16801;DHT22;8518;53.236;10.384;2024-01-11T10:25:12;-0.40;99.90
16801;DHT22;8518;53.236;10.384;2024-01-11T10:27:42;1.70;99.90
16801;DHT22;8518;53.236;10.384;2024-01-11T10:30:09;0.30;99.90
16801;DHT22;8518;53.236;10.384;2024-01-11T10:32:34;0.30;99.90
16801;DHT22;8518;53.236;10.384;2024-01-11T10:35:00;1.60;99.90
16801;DHT22;8518;53.236;10.384;2024-01-11T10:37:30;-0.60;99.90
16801;DHT22;8518;53.236;10.384;2024-01-11T10:42:59;0.50;99.90
16801;DHT22;8518;53.236;10.384;2024-01-11T10:45:26;0.00;99.90
16801;DHT22;8518;53.236;10.384;2024-01-11T10:47:56;2.50;99.90
16801;DHT22;8518;53.236;10.384;2024-01-11T10:50:25;0.50;99.90
16801;DHT22;8518;53.236;10.384;2024-01-11T10:53:12;2.00;99.90
16801;DHT22;8518;53.236;10.384;2024-01-11T10:55:44;0.60;99.90
16801;DHT22;8518;53.236;10.384;2024-01-11T11:01:14;0.90;99.90
16801;DHT22;8518;53.236;10.384;2024-01-11T11:03:39;2.00;99.90
16801;DHT22;8518;53.236;10.384;2024-01-11T11:06:09;1.20;99.90
16801;DHT22;8518;53.236;10.384;2024-01-11T11:11:40;1.60;99.90
16801;DHT22;8518;53.236;10.384;2024-01-11T11:17:09;2.00;99.90
16801;DHT22;8518;53.236;10.384;2024-01-11T11:22:39;1.90;99.90
16801;DHT22;8518;53.236;10.384;2024-01-11T11:25:23;2.10;99.90
16801;DHT22;8518;53.236;10.384;2024-01-11T11:27:49;1.80;99.90
16801;DHT22;8518;53.236;10.384;2024-01-11T11:30:15;1.90;99.90
16801;DHT22;8518;53.236;10.384;2024-01-11T11:32:45;2.00;99.90
16801;DHT22;8518;53.236;10.384;2024-01-11T11:35:14;2.50;99.90
16801;DHT22;8518;53.236;10.384;2024-01-11T11:37:39;3.20;99.90
16801;DHT22;8518;53.236;10.384;2024-01-11T11:40:05;1.40;99.90
16801;DHT22;8518;53.236;10.384;2024-01-11T11:42:31;2.00;99.90
16801;DHT22;8518;53.236;10.384;2024-01-11T11:44:57;2.00;99.90
16801;DHT22;8518;53.236;10.384;2024-01-11T11:48:06;2.60;99.90
16801;DHT22;8518;53.236;10.384;2024-01-11T11:50:16;2.90;99.90
16801;DHT22;8518;53.236;10.384;2024-01-11T11:56:08;2.20;99.90
16801;DHT22;8518;53.236;10.384;2024-01-11T12:01:46;3.00;99.90
16801;DHT22;8518;53.236;10.384;2024-01-11T12:04:15;2.10;99.90
16801;DHT22;8518;53.236;10.384;2024-01-11T12:06:41;2.20;99.90
16801;DHT22;8518;53.236;10.384;2024-01-11T12:12:10;2.70;99.90
16801;DHT22;8518;53.236;10.384;2024-01-11T12:14:36;1.80;99.90
16801;DHT22;8518;53.236;10.384;2024-01-11T12:17:02;2.30;99.90
16801;DHT22;8518;53.236;10.384;2024-01-11T12:22:34;2.30;99.90
16801;DHT22;8518;53.236;10.384;2024-01-11T12:24:59;2.40;99.90
16801;DHT22;8518;53.236;10.384;2024-01-11T12:27:26;1.90;99.90
16801;DHT22;8518;53.236;10.384;2024-01-11T12:32:56;2.40;99.90
16801;DHT22;8518;53.236;10.384;2024-01-11T12:35:21;2.10;99.90
16801;DHT22;8518;53.236;10.384;2024-01-11T12:37:54;1.40;99.90
16801;DHT22;8518;53.236;10.384;2024-01-11T12:40:20;2.20;99.90
16801;DHT22;8518;53.236;10.384;2024-01-11T12:42:46;2.20;99.90
16801;DHT22;8518;53.236;10.384;2024-01-11T12:45:12;2.40;99.90
16801;DHT22;8518;53.236;10.384;2024-01-11T12:47:37;2.40;99.90
16801;DHT22;8518;53.236;10.384;2024-01-11T12:50:03;3.30;99.90
16801;DHT22;8518;53.236;10.384;2024-01-11T12:52:29;2.50;99.90
16801;DHT22;8518;53.236;10.384;2024-01-11T12:54:55;2.40;99.90
16801;DHT22;8518;53.236;10.384;2024-01-11T12:57:22;2.20;99.90
16801;DHT22;8518;53.236;10.384;2024-01-11T13:02:51;3.80;99.90
16801;DHT22;8518;53.236;10.384;2024-01-11T13:05:18;2.60;99.90
16801;DHT22;8518;53.236;10.384;2024-01-11T13:07:44;2.20;99.90
16801;DHT22;8518;53.236;10.384;2024-01-11T13:10:10;2.50;99.90
16801;DHT22;8518;53.236;10.384;2024-01-11T13:12:36;2.90;99.90
16801;DHT22;8518;53.236;10.384;2024-01-11T13:15:01;2.20;99.90
16801;DHT22;8518;53.236;10.384;2024-01-11T13:17:27;5.10;99.90
16801;DHT22;8518;53.236;10.384;2024-01-11T13:23:18;2.70;99.90
16801;DHT22;8518;53.236;10.384;2024-01-11T13:25:47;2.80;99.90
16801;DHT22;8518;53.236;10.384;2024-01-11T13:31:16;2.80;99.90
16801;DHT22;8518;53.236;10.384;2024-01-11T13:36:45;2.70;99.90
16801;DHT22;8518;53.236;10.384;2024-01-11T13:42:13;2.70;99.90
16801;DHT22;8518;53.236;10.384;2024-01-11T13:44:41;2.70;99.90
16801;DHT22;8518;53.236;10.384;2024-01-11T13:47:06;2.10;99.90
16801;DHT22;8518;53.236;10.384;2024-01-11T13:52:36;1.20;99.90
16801;DHT22;8518;53.236;10.384;2024-01-11T13:55:11;2.10;99.90
16801;DHT22;8518;53.236;10.384;2024-01-11T13:57:37;2.90;99.90
16801;DHT22;8518;53.236;10.384;2024-01-11T14:00:05;3.00;99.90
16801;DHT22;8518;53.236;10.384;2024-01-11T14:02:31;3.30;99.90
16801;DHT22;8518;53.236;10.384;2024-01-11T14:04:57;1.40;99.90
16801;DHT22;8518;53.236;10.384;2024-01-11T14:07:23;4.30;99.90
16801;DHT22;8518;53.236;10.384;2024-01-11T14:12:51;2.80;99.90
16801;DHT22;8518;53.236;10.384;2024-01-11T14:15:17;3.40;99.90
16801;DHT22;8518;53.236;10.384;2024-01-11T14:17:43;2.80;99.90
16801;DHT22;8518;53.236;10.384;2024-01-11T14:20:16;2.90;99.90
16801;DHT22;8518;53.236;10.384;2024-01-11T14:22:42;2.40;99.90
16801;DHT22;8518;53.236;10.384;2024-01-11T14:25:16;2.90;99.90
16801;DHT22;8518;53.236;10.384;2024-01-11T14:27:42;3.00;99.90
16801;DHT22;8518;53.236;10.384;2024-01-11T14:30:11;1.90;99.90
16801;DHT22;8518;53.236;10.384;2024-01-11T14:32:37;2.90;99.90
16801;DHT22;8518;53.236;10.384;2024-01-11T14:35:03;2.70;99.90
16801;DHT22;8518;53.236;10.384;2024-01-11T14:37:32;2.80;99.90
16801;DHT22;8518;53.236;10.384;2024-01-11T14:43:02;2.90;99.90
16801;DHT22;8518;53.236;10.384;2024-01-11T14:45:29;3.10;99.90
16801;DHT22;8518;53.236;10.384;2024-01-11T14:47:55;2.60;99.90
16801;DHT22;8518;53.236;10.384;2024-01-11T14:50:20;2.60;99.90
16801;DHT22;8518;53.236;10.384;2024-01-11T14:52:46;2.20;99.90
16801;DHT22;8518;53.236;10.384;2024-01-11T14:55:12;2.50;99.90
16801;DHT22;8518;53.236;10.384;2024-01-11T14:57:44;2.70;99.90
16801;DHT22;8518;53.236;10.384;2024-01-11T15:00:10;2.70;99.90
16801;DHT22;8518;53.236;10.384;2024-01-11T15:02:36;2.60;99.90
16801;DHT22;8518;53.236;10.384;2024-01-11T15:05:02;2.60;99.90
16801;DHT22;8518;53.236;10.384;2024-01-11T15:07:29;2.70;99.90
16801;DHT22;8518;53.236;10.384;2024-01-11T15:12:57;2.60;99.90
16801;DHT22;8518;53.236;10.384;2024-01-11T15:15:23;2.60;99.90
16801;DHT22;8518;53.236;10.384;2024-01-11T15:17:50;1.50;99.90
16801;DHT22;8518;53.236;10.384;2024-01-11T15:20:16;2.60;99.90
16801;DHT22;8518;53.236;10.384;2024-01-11T15:22:41;2.90;99.90
16801;DHT22;8518;53.236;10.384;2024-01-11T15:25:07;1.50;99.90
16801;DHT22;8518;53.236;10.384;2024-01-11T15:27:33;2.70;99.90
16801;DHT22;8518;53.236;10.384;2024-01-11T15:29:58;2.60;99.90
16801;DHT22;8518;53.236;10.384;2024-01-11T15:32:24;2.30;99.90
16801;DHT22;8518;53.236;10.384;2024-01-11T15:34:50;4.40;99.90
16801;DHT22;8518;53.236;10.384;2024-01-11T15:37:15;2.50;99.90
16801;DHT22;8518;53.236;10.384;2024-01-11T15:42:46;2.50;99.90
16801;DHT22;8518;53.236;10.384;2024-01-11T15:45:12;2.40;99.90
16801;DHT22;8518;53.236;10.384;2024-01-11T15:47:37;2.40;99.90
16801;DHT22;8518;53.236;10.384;2024-01-11T15:50:03;2.40;99.90
16801;DHT22;8518;53.236;10.384;2024-01-11T15:52:34;2.60;99.90
16801;DHT22;8518;53.236;10.384;2024-01-11T15:55:00;2.50;99.90
16801;DHT22;8518;53.236;10.384;2024-01-11T15:57:25;2.40;99.90
16801;DHT22;8518;53.236;10.384;2024-01-11T16:02:54;2.40;99.90
16801;DHT22;8518;53.236;10.384;2024-01-11T16:05:21;2.20;99.90
16801;DHT22;8518;53.236;10.384;2024-01-11T16:07:47;2.30;99.90
16801;DHT22;8518;53.236;10.384;2024-01-11T16:10:13;2.30;99.90
16801;DHT22;8518;53.236;10.384;2024-01-11T16:12:39;2.30;99.90
16801;DHT22;8518;53.236;10.384;2024-01-11T16:15:05;2.30;99.90
16801;DHT22;8518;53.236;10.384;2024-01-11T16:17:30;2.30;99.90
16801;DHT22;8518;53.236;10.384;2024-01-11T16:22:59;2.30;99.90
16801;DHT22;8518;53.236;10.384;2024-01-11T16:31:31;2.00;99.90
16801;DHT22;8518;53.236;10.384;2024-01-11T16:33:57;2.20;99.90
16801;DHT22;8518;53.236;10.384;2024-01-11T16:36:22;2.20;99.90
16801;DHT22;8518;53.236;10.384;2024-01-11T16:41:51;2.60;99.90
16801;DHT22;8518;53.236;10.384;2024-01-11T16:44:17;2.30;99.90
16801;DHT22;8518;53.236;10.384;2024-01-11T16:46:46;2.20;99.90
16801;DHT22;8518;53.236;10.384;2024-01-11T16:52:17;1.10;99.90
16801;DHT22;8518;53.236;10.384;2024-01-11T16:57:46;2.70;99.90
16801;DHT22;8518;53.236;10.384;2024-01-11T17:00:11;1.10;99.90
16801;DHT22;8518;53.236;10.384;2024-01-11T17:02:37;2.20;99.90
16801;DHT22;8518;53.236;10.384;2024-01-11T17:05:05;1.70;99.90
16801;DHT22;8518;53.236;10.384;2024-01-11T17:07:31;2.30;99.90
16801;DHT22;8518;53.236;10.384;2024-01-11T17:12:59;2.10;99.90
16801;DHT22;8518;53.236;10.384;2024-01-11T17:15:25;1.90;99.90
16801;DHT22;8518;53.236;10.384;2024-01-11T17:17:52;2.00;99.90
16801;DHT22;8518;53.236;10.384;2024-01-11T17:20:17;2.00;99.90
16801;DHT22;8518;53.236;10.384;2024-01-11T17:22:43;1.60;99.90
16801;DHT22;8518;53.236;10.384;2024-01-11T17:25:08;3.40;99.90
16801;DHT22;8518;53.236;10.384;2024-01-11T17:27:34;0.60;99.90
16801;DHT22;8518;53.236;10.384;2024-01-11T17:29:59;1.70;99.90
16801;DHT22;8518;53.236;10.384;2024-01-11T17:32:25;1.60;99.90
16801;DHT22;8518;53.236;10.384;2024-01-11T17:34:53;1.60;99.90
16801;DHT22;8518;53.236;10.384;2024-01-11T17:37:21;2.20;99.90
16801;DHT22;8518;53.236;10.384;2024-01-11T17:42:49;1.90;99.90
16801;DHT22;8518;53.236;10.384;2024-01-11T17:45:17;4.20;99.90
16801;DHT22;8518;53.236;10.384;2024-01-11T17:47:43;-0.40;99.90
16801;DHT22;8518;53.236;10.384;2024-01-11T17:50:09;0.20;99.90
16801;DHT22;8518;53.236;10.384;2024-01-11T17:52:34;2.10;99.90
16801;DHT22;8518;53.236;10.384;2024-01-11T17:55:00;1.10;99.90
16801;DHT22;8518;53.236;10.384;2024-01-11T17:57:25;1.80;99.90
16801;DHT22;8518;53.236;10.384;2024-01-11T18:02:54;2.40;99.90
16801;DHT22;8518;53.236;10.384;2024-01-11T18:05:23;1.80;99.90
16801;DHT22;8518;53.236;10.384;2024-01-11T18:07:49;2.10;99.90
16801;DHT22;8518;53.236;10.384;2024-01-11T18:10:14;2.00;99.90
16801;DHT22;8518;53.236;10.384;2024-01-11T18:12:45;4.90;99.90
16801;DHT22;8518;53.236;10.384;2024-01-11T18:15:12;3.30;99.90
16801;DHT22;8518;53.236;10.384;2024-01-11T18:17:38;1.90;99.90
16801;DHT22;8518;53.236;10.384;2024-01-11T18:20:07;1.70;99.90
16801;DHT22;8518;53.236;10.384;2024-01-11T18:22:33;2.20;99.90
16801;DHT22;8518;53.236;10.384;2024-01-11T18:24:59;1.60;99.90
16801;DHT22;8518;53.236;10.384;2024-01-11T18:27:24;2.10;99.90
16801;DHT22;8518;53.236;10.384;2024-01-11T18:32:53;2.20;99.90
16801;DHT22;8518;53.236;10.384;2024-01-11T18:35:19;2.30;99.90
16801;DHT22;8518;53.236;10.384;2024-01-11T18:37:44;2.90;99.90
16801;DHT22;8518;53.236;10.384;2024-01-11T18:40:10;2.30;99.90
16801;DHT22;8518;53.236;10.384;2024-01-11T18:42:43;0.70;99.90
16801;DHT22;8518;53.236;10.384;2024-01-11T18:45:11;2.20;99.90
16801;DHT22;8518;53.236;10.384;2024-01-11T18:47:37;2.70;99.90
16801;DHT22;8518;53.236;10.384;2024-01-11T18:50:03;5.00;99.90
16801;DHT22;8518;53.236;10.384;2024-01-11T18:52:29;1.90;99.90
16801;DHT22;8518;53.236;10.384;2024-01-11T18:54:56;2.00;99.90
16801;DHT22;8518;53.236;10.384;2024-01-11T18:57:22;0.40;99.90
16801;DHT22;8518;53.236;10.384;2024-01-11T19:02:58;1.80;99.90
16801;DHT22;8518;53.236;10.384;2024-01-11T19:05:25;3.70;99.90
16801;DHT22;8518;53.236;10.384;2024-01-11T19:07:50;0.70;99.90
16801;DHT22;8518;53.236;10.384;2024-01-11T19:10:16;4.30;99.90
16801;DHT22;8518;53.236;10.384;2024-01-11T19:12:42;0.50;99.90
16801;DHT22;8518;53.236;10.384;2024-01-11T19:15:15;1.00;99.90
16801;DHT22;8518;53.236;10.384;2024-01-11T19:17:40;4.60;99.90
16801;DHT22;8518;53.236;10.384;2024-01-11T19:20:06;1.80;99.90
16801;DHT22;8518;53.236;10.384;2024-01-11T19:22:32;1.70;99.90